Caio Braga

Recruteur - Grêmio
2 Sept 2027
Jeudi
Processus

Personnalité

Adaptabilité (5) Ambition (6) Controverse (4) Loyauté (19) Pression (12) Professionnalisme (18) Sportivité (12) Tempérament (10)

Profil

Style d'entraînement Démocratique
Diplôme Continental C
Détermination 9
Gestion des joueurs 6
Motivation 9
Discipline 6
Satisfaction professionnelle
100%
Fatigue
0%
Rôle Recruteur
Salaire 104.4K p/s
Contrat 14.03.2030

Performance

Comportement Bon
Efficacité de l'entraînement
49%
Développement des joueurs
60%
Prévention des blessures
55%
Mise en place tactique
35%

Événements récents

A évalué un joueur maintenant
A participé à une réunion de recrutement maintenant
A recommandé une cible de transfert maintenant
A recommandé une cible de transfert maintenant
A évalué un joueur 7j
A évalué un joueur 7j
A évalué un joueur 7j
A évalué un joueur 7j

Suivi en cours

229
Joueur Club Statut Capacité Confiance Observé Dernière observation Dernier vote
Brais Méndez Columbus Crew Actif 151 / 145 40% 2 30.08.2027 -
Ferreirinha Sport Recife Actif 130 / 131 40% 1 30.08.2027 Plus d'infos
Duvan Rangel La Equidad Actif 136 / 132 40% 1 30.08.2027 -
Kai Wagner Philadelphia Union Actif 123 / 132 40% 2 28.08.2027 -
Sergio Reguilón Inter Miami CF Actif 135 / 137 40% 2 28.08.2027 -
Tomás Escalante Plaza Colonia Actif 126 / 126 40% 1 28.08.2027 -
Aaron Herrera Charlotte Football Club Actif 130 / 127 40% 1 27.08.2027 -
Willyan Rocha Al Jazira Actif 133 / 133 40% 1 27.08.2027 -
Leonardo Borja La Equidad Actif 146 / 146 40% 1 27.08.2027 -
Nahuel Herrera Penarol Actif 128 / 126 40% 1 26.08.2027 -
Naves Palmeiras Actif 135 / 137 40% 1 26.08.2027 -
Erick Pulga Bahia Actif 134 / 132 40% 1 25.08.2027 -
Arthur Santos Actif 139 / 139 40% 1 25.08.2027 -
Mateo Mendoza Godoy Cruz Actif 128 / 129 40% 1 25.08.2027 -
Steven Alzate Atlanta United FC Actif 130 / 131 40% 1 25.08.2027 -
Sergi Palencia Los Angeles Football Club Actif 130 / 123 40% 1 23.08.2027 -
Mohamed Camara Maccabi Tel Aviv Actif 145 / 140 40% 1 23.08.2027 -
Marcos Antonio Sport Recife Actif 143 / 143 40% 1 22.08.2027 -
Marcelo Saracchi Houston Dynamo Actif 125 / 120 40% 1 22.08.2027 -
David Da Costa Portland Timbers Actif 135 / 127 40% 1 21.08.2027 -
Nadir Zortea Bologna Actif 141 / 141 40% 3 20.08.2027 -
Alessandro Bastoni Inter Actif 166 / 165 40% 2 20.08.2027 -
Tommaso Pobega Bologna Actif 146 / 146 40% 1 20.08.2027 -
Nuno Tavares Lazio Actif 155 / 152 40% 3 19.08.2027 -
Josh Doig Sassuolo Actif 144 / 147 40% 1 19.08.2027 -
Idrissa Touré Monza Actif 138 / 142 40% 1 19.08.2027 -
Fikayo Tomori AC Milan Actif 155 / 151 40% 2 17.08.2027 -
Emanuele Valeri Parma Actif 142 / 140 40% 2 17.08.2027 -
Benedict Hollerbach Mainz 05 Actif 141 / 139 40% 2 17.08.2027 -
Andrea Colpani Monza Actif 144 / 144 40% 2 17.08.2027 -
Gaetano Castrovilli Cesena Actif 137 / 139 40% 1 17.08.2027 -
Samuele Angori Pisa Actif 136 / 135 40% 1 16.08.2027 -
Alessandro Buongiorno Sassuolo Actif 162 / 156 40% 1 16.08.2027 -
Daniel Tonoli Modena Actif 132 / 133 40% 1 16.08.2027 -
Alessandro Sersanti Modena Actif 128 / 134 40% 1 13.08.2027 -
Franck Kessié Atalanta Actif 152 / 147 40% 1 13.08.2027 -
Diego Moreira AC Milan Actif 147 / 147 40% 1 12.08.2027 -
Lewis Ferguson Bologna Actif 148 / 151 40% 1 12.08.2027 -
Assane Diao Lazio Actif 153 / 158 40% 1 11.08.2027 -
Manu Koné AS Roma Actif 167 / 169 40% 3 10.08.2027 Plus d'infos
Guille Rosas Gijón Actif 142 / 144 40% 3 10.08.2027 -
Donyell Malen AS Roma Actif 155 / 151 40% 1 10.08.2027 -
Carlos Augusto Inter Actif 153 / 158 40% 1 10.08.2027 -
Welington Southampton Actif 134 / 139 40% 10 08.08.2027 -
Hector Ramirez Newcastle United Actif 154 / 157 40% 2 08.08.2027 Plus d'infos
Jack Rudoni Coventry City Actif 141 / 134 40% 6 08.08.2027 -
Callum O'Hare Sheffield United Actif 137 / 134 40% 4 08.08.2027 -
Mikkel Damsgaard Brentford Actif 148 / 150 40% 1 08.08.2027 -
Borja Sainz Fiorentina Actif 155 / 144 40% 2 06.08.2027 -
Callum Hudson-Odoi Nottingham Forest Actif 154 / 155 40% 1 06.08.2027 -
Azor Matusiwa Ipswich Town Actif 141 / 139 40% 1 05.08.2027 -
Adrià Altimira Deportivo La Coruña Actif 136 / 132 40% 1 04.08.2027 -
Kiernan Dewsbury-Hall Everton Actif 153 / 152 40% 3 03.08.2027 -
Léo Scienza Southampton Actif 142 / 140 40% 2 03.08.2027 -
Giacomo Raspadori Atalanta Actif 154 / 152 40% 1 03.08.2027 -
Tom Fellows Southampton Actif 137 / 135 40% 5 30.07.2027 -
Xavi Simons Tottenham Actif 161 / 165 40% 2 30.07.2027 -
Dango Ouattara Brentford Actif 151 / 145 40% 3 30.07.2027 -
Nicolas Jackson Aston Villa Actif 151 / 145 40% 1 28.07.2027 -
Georginio Rutter Brighton Actif 152 / 146 40% 1 28.07.2027 -
Harry Wilson Leeds United Actif 145 / 152 40% 1 27.07.2027 -
Jacob Ramsey Newcastle United Actif 156 / 147 40% 1 27.07.2027 -
Morgan Whittaker Middlesbrough Actif 137 / 131 40% 3 26.07.2027 -
Carlos Vicente Birmingham Actif 147 / 147 40% 1 26.07.2027 -
Joe Gelhardt Hull City Actif 136 / 138 40% 1 24.07.2027 -
Finn Azaz Southampton Actif 133 / 137 40% 2 23.07.2027 -
Mohamed-Ali Cho Hull City Actif 142 / 142 40% 1 23.07.2027 -
Riley McGree Middlesbrough Actif 136 / 136 40% 2 19.07.2027 -
Lucas Moura Sport Recife Actif 134 / 134 86% 1 03.06.2027 Approuver
Curtis Jones Inter Actif 155 / 151 40% 8 31.05.2027 -
Ethan Galbraith Swansea City Actif 134 / 130 40% 3 30.05.2027 -
Óscar Mingueza Crystal Palace Actif 152 / 152 40% 2 30.05.2027 -
Derry Murkin Derby County Actif 126 / 122 40% 1 30.05.2027 -
Marco Asensio Fenerbahce Actif 160 / 155 40% 2 29.05.2027 Plus d'infos
James Trafford Leeds United Actif 142 / 149 40% 4 28.05.2027 Observer
Jacob Widell Zetterström Derby County Actif 134 / 128 40% 1 28.05.2027 -
Jamie Cumming Oxford United Actif 129 / 126 40% 1 28.05.2027 -
Dara O'Shea Ipswich Town Actif 140 / 134 40% 3 26.05.2027 -
Nico González Newcastle United Actif 162 / 166 40% 4 25.05.2027 Observer
Adrien Truffert Bournemouth Actif 154 / 145 40% 2 25.05.2027 -
Milan van Ewijk Mansfield Town Actif 127 / 125 40% 3 24.05.2027 -
Rob Atkinson Bristol City Actif 122 / 126 40% 1 24.05.2027 -
Callum Doyle Wrexham Actif 133 / 132 40% 3 23.05.2027 -
Shea Charles Southampton Actif 139 / 138 40% 2 22.05.2027 -
Sven Botman Newcastle United Actif 160 / 160 40% 2 22.05.2027 -
Mads Hermansen West Ham United Actif 143 / 139 40% 3 20.05.2027 -
Michael Cooper Sheffield United Perdu 132 / 129 40% 2 20.05.2027 -
Saša Lukić Ipswich Town Actif 141 / 140 40% 3 18.05.2027 -
Arijanet Murić Sassuolo Actif 138 / 147 40% 3 17.05.2027 -
Dean Henderson Crystal Palace Actif 152 / 150 40% 2 17.05.2027 -
Lorenzo Palmisani Frosinone Actif 126 / 129 40% 1 15.05.2027 -
Anatolii Trubin Juventus Actif 156 / 159 40% 1 15.05.2027 -
Alexander Nübel Besiktas Perdu 149 / 144 40% 1 14.05.2027 -
Radek Vítek Middlesbrough Actif 141 / 145 40% 2 12.05.2027 Plus d'infos
Balázs Tóth Blackburn Rovers Actif 132 / 123 40% 2 12.05.2027 -
Mats Wieffer Brighton Actif 148 / 144 40% 1 12.05.2027 -
Adam Wharton Crystal Palace Actif 154 / 154 40% 2 11.05.2027 -
Nordi Mukiele Sunderland Actif 142 / 144 40% 1 11.05.2027 -
Kostantis Tzolakis Hull City Actif 147 / 143 40% 5 09.05.2027 -
Max O'Leary West Bromwich Albion Actif 133 / 131 40% 2 09.05.2027 -
Alex Meret Napoli Actif 157 / 160 40% 2 08.05.2027 -
Ousmane Diomande Nottingham Forest Actif 153 / 150 40% 1 08.05.2027 -
Michele Cerofolini Bari Perdu 129 / 128 40% 2 06.05.2027 -
Bilal Bayazıt Kayserispor Actif 126 / 128 40% 1 06.05.2027 -
Caoimhin Kelleher Brentford Actif 151 / 155 40% 3 05.05.2027 -
Tyler Adams Bournemouth Actif 154 / 150 40% 1 04.05.2027 -
Amadou Onana Aston Villa Actif 159 / 158 40% 1 04.05.2027 -
Boubacar Kamara Aston Villa Actif 166 / 164 40% 1 04.05.2027 -
Anton Stach Leeds United Actif 146 / 144 40% 1 02.05.2027 -
Daniel Iversen Preston Actif 129 / 127 40% 1 29.04.2027 -
Kenny Tete Fulham Actif 142 / 142 40% 2 28.04.2027 -
Jan Paul van Hecke Tottenham Actif 162 / 156 40% 2 28.04.2027 -
Xaver Schlager Nottingham Forest Actif 154 / 150 40% 1 28.04.2027 Plus d'infos
Juan Soriano Académico de Viseu Actif 132 / 130 40% 2 25.04.2027 -
Bright Arrey-Mbi Braga Actif 138 / 139 40% 10 24.04.2027 -
Iván Fresneda Sporting CP Actif 143 / 142 40% 16 24.04.2027 -
Cezary Miszta Rio Ave Actif 133 / 130 40% 3 24.04.2027 -
Nicolas Schmid Portsmouth Actif 126 / 123 40% 1 24.04.2027 -
Patrick Sequeira Casa Pia Actif 128 / 128 40% 3 19.04.2027 -
Pau Víctor AVS Actif 135 / 135 40% 9 18.04.2027 -
Tomás Araújo Benfica Actif 149 / 144 40% 17 17.04.2027 -
Ryan Sessegnon Fulham Actif 149 / 151 40% 1 17.04.2027 -
Ignacio de Arruabarrena Arouca Actif 125 / 132 40% 1 15.04.2027 -
Lazar Carević Famalicao Actif 137 / 131 40% 1 15.04.2027 -
Fredrik Aursnes Benfica Actif 147 / 150 40% 4 14.04.2027 -
Agustín Palavecino Cruz Azul Actif 134 / 141 40% 2 14.04.2027 -
Kristoffer Lund Birmingham Actif 133 / 130 40% 1 14.04.2027 -
Luke McNally Bristol City Actif 134 / 135 40% 1 14.04.2027 -
Francisco Moura Lusitânia Lourosa Actif 144 / 140 40% 4 12.04.2027 -
Kyle Walker-Peters West Ham United Actif 133 / 134 40% 1 12.04.2027 -
Harry Clarke Preston Actif 130 / 130 40% 1 12.04.2027 -
Gonçalo Inácio Sporting CP Actif 147 / 153 40% 11 09.04.2027 -
Luís Esteves Atlas Actif 132 / 126 40% 6 09.04.2027 -
Jordan Holsgrove Estoril Praia Actif 131 / 127 40% 8 07.04.2027 -
Renato Sanches AVS Actif 136 / 126 40% 5 07.04.2027 -
Robin Roefs Sunderland Actif 147 / 148 40% 1 06.04.2027 Plus d'infos
Jan Bednarek Porto Actif 146 / 140 40% 9 05.04.2027 -
Hwang In-Beom Porto Actif 144 / 145 40% 14 05.04.2027 -
João Palhinha Benfica Actif 154 / 145 40% 13 04.04.2027 -
Javi Sánchez Arouca Actif 128 / 132 40% 4 02.04.2027 -
Víctor Gómez Braga Actif 141 / 133 40% 17 01.04.2027 -
Alejandro Zendejas Club America Actif 142 / 139 40% 2 01.04.2027 -
Alberto Costa Porto Actif 142 / 148 40% 14 28.03.2027 -
Alan Varela Porto Actif 148 / 148 40% 6 26.03.2027 -
Pablo Rosario Porto Actif 144 / 132 40% 5 26.03.2027 -
Mario Dorgeles Braga Actif 140 / 137 40% 5 26.03.2027 -
Santi García Gil Vicente Actif 137 / 129 40% 9 22.03.2027 -
Samu Vitoria Guimaraes Actif 128 / 123 40% 2 22.03.2027 -
Eduardo Quaresma Sporting CP Actif 141 / 142 40% 6 20.03.2027 -
Luis Quintero Torreense Actif 131 / 125 40% 2 19.03.2027 -
Luís Guilherme Sporting CP Actif 128 / 131 40% 5 17.03.2027 -
Paulo Moreira Farense Actif 129 / 128 40% 4 15.03.2027 -
Valery Académico de Viseu Actif 127 / 116 40% 1 14.03.2027 -
Derensili Sanches Fernandes Huddersfield Town Actif 122 / 121 40% 1 12.03.2027 -
Rodrigo Pinheiro Famalicao Actif 122 / 130 40% 11 11.03.2027 -
Leon Goretzka Aston Villa Actif 153 / 153 40% 2 11.03.2027 -
João Simões Sporting CP Actif 130 / 137 40% 7 11.03.2027 -
Gonzalo Piovi Cruz Azul Actif 139 / 124 40% 1 09.03.2027 -
Sergi Altimira Sporting CP Actif 135 / 145 40% 6 08.03.2027 -
Sikou Niakaté Braga Actif 137 / 141 40% 7 07.03.2027 -
Rafik Guitane Estoril Praia Actif 137 / 135 40% 1 07.03.2027 -
Max Bird Birmingham Actif 132 / 132 40% 5 05.03.2027 -
Diego Lainez Tigres Actif 129 / 126 40% 3 03.03.2027 -
Pepê Porto Actif 149 / 138 40% 4 02.03.2027 -
Gerardo Arteaga Monterrey Actif 137 / 128 40% 2 01.03.2027 -
William Gomes Porto Actif 139 / 141 40% 3 26.02.2027 -
Erick Sánchez OGC Nice Actif 137 / 144 40% 1 26.02.2027 -
Juninho Pumas UNAM Actif 127 / 131 40% 1 25.02.2027 -
Dodi Lukébakio Benfica Actif 144 / 143 40% 2 19.02.2027 -
Ozziel Herrera Tigres Actif 123 / 124 40% 2 16.02.2027 -
Ross McCrorie Bristol City Actif 132 / 131 40% 1 16.02.2027 -
Gustaf Lagerbielke Braga Actif 136 / 141 40% 1 16.02.2027 -
Joaquim Tigres Actif 131 / 124 40% 1 14.02.2027 -
Florentino Luís Ipswich Town Actif 140 / 142 40% 1 08.02.2027 -
Victor Froholdt Porto Actif 149 / 153 40% 7 05.02.2027 -
Gabri Martínez Braga Actif 135 / 126 40% 1 04.02.2027 -
Nicolás Fernández Mercau Shakhtar Actif 138 / 137 40% 3 03.02.2027 -
Maxime Dominguez Maritimo Actif 129 / 126 40% 1 01.02.2027 -
José Hurtado Bragantino Actif 123 / 123 40% 2 29.01.2027 -
Danilo Botafogo Actif 141 / 141 40% 1 27.01.2027 -
Matheuzinho Corinthians Actif 133 / 134 40% 5 26.01.2027 -
Caio Alexandre Bahia Actif 133 / 132 40% 5 25.01.2027 -
Matheus Bidu Corinthians Actif 135 / 131 40% 4 25.01.2027 -
Christian Krasnodar Actif 132 / 135 40% 6 23.01.2027 -
Nuno Moreira Vasco da Gama Actif 131 / 130 40% 1 22.01.2027 -
Lukáš Červ Viktoria Plzen Actif 134 / 138 40% 2 20.01.2027 -
Jesús Orozco Chiquete Cruz Azul Actif 135 / 125 40% 4 16.01.2027 -
Juan Pablo Freytes Fluminense Actif 132 / 124 40% 2 08.01.2027 -
Lucas Piton Vasco da Gama Actif 133 / 126 40% 3 08.01.2027 -
Félix Lemaréchal Club Brugge Actif 130 / 140 40% 1 06.01.2027 -
Samuel Lino Flamengo Actif 143 / 139 40% 1 01.01.2027 -
Álvaro Barreal Santos Actif 133 / 129 83% 1 28.12.2026 Approuver
Gabriel Veron Porto Actif 125 / 120 40% 2 26.12.2026 -
Eric Ramires Bragantino Actif 126 / 130 40% 1 26.12.2026 -
Henry Mosquera Bragantino Actif 134 / 130 40% 1 25.12.2026 -
Benjamín Rollheiser Santos Actif 134 / 129 40% 1 21.12.2026 -
Marquinhos Spartak Moscow Actif 128 / 134 40% 1 14.12.2026 -
Vitinho Botafogo Actif 137 / 132 40% 3 01.12.2026 -
Léo Ortiz Flamengo Actif 139 / 142 40% 2 23.11.2026 -
Vitor Carvalho Braga Actif 133 / 136 40% 1 21.11.2026 -
Mauro Arambarri River Plate Actif 157 / 155 40% 2 09.11.2026 -
Lucas Paquetá Flamengo Actif 142 / 142 40% 2 31.10.2026 -
Emerson Royal Flamengo Actif 136 / 129 40% 1 30.10.2026 -
Gustavo Marques Bragantino Actif 127 / 130 40% 2 24.10.2026 -
William Cruzeiro Actif 132 / 140 40% 3 15.10.2026 -
Fabrício Bruno Cruzeiro Actif 138 / 135 40% 2 13.10.2026 -
Jean Lucas Bahia Actif 134 / 137 40% 1 13.10.2026 -
Matty Cash Aston Villa Actif 153 / 146 40% 1 10.10.2026 -
Jesús Angulo Tigres Actif 129 / 128 40% 1 02.10.2026 -
Zeno Debast Sporting CP Actif 142 / 139 40% 3 30.09.2026 -
Martim Fernandes Porto Actif 131 / 142 40% 2 28.09.2026 -
Renan Lodi Atlético Mineiro Actif 136 / 139 40% 2 27.09.2026 -
Ibrahim Sangaré Nottingham Forest Actif 148 / 153 40% 1 27.09.2026 -
James Cardona La Equidad Actif 141 / 138 40% 1 24.09.2026 -
Alexander Bah Benfica Actif 141 / 134 40% 1 15.09.2026 -
Santiago Ramos Mingo Bahia Actif 134 / 132 40% 1 12.09.2026 -
Mathias De Amorim Famalicao Actif 130 / 132 40% 1 07.09.2026 -
Yoan Bonny Inter Actif 141 / 142 40% 2 18.08.2026 -
Youssef En-Nesyri Al-Ittihad Actif 134 / 140 40% 1 18.08.2026 -
Gabriel Jesus Barcelona Actif 150 / 158 40% 4 17.08.2026 -
Kerem Aktürkoğlu Fenerbahce Actif 140 / 133 40% 1 15.08.2026 -
Ricardo Horta Braga Actif 153 / 147 40% 1 09.08.2026 -
Dominic Calvert-Lewin Leeds United Actif 145 / 143 40% 1 05.08.2026 -
Joshua Zirkzee Manchester United Actif 147 / 136 40% 1 05.08.2026 -
Gonzalo Fulham Actif 146 / 146 40% 1 04.08.2026 -
Ángel Correa River Plate Actif 147 / 142 40% 1 04.08.2026 -
Matheus Pereira Cruzeiro Actif 140 / 137 40% 1 03.08.2026 -
Karim Adeyemi Barcelona Actif 144 / 154 40% 1 02.08.2026 -
Rodrigo Zalazar Sporting CP Actif 148 / 143 40% 1 02.08.2026 -